Time;durP1;ratioP1;P1;durP2;ratioP2;P2;SDS_P1;SDS_P2;PMS_P1;PMS_P2;Temp;Humidity;BMP_temperature;BMP_pressure;BME280_temperature;BME280_humidity;BME280_pressure;Samples;Min_cycle;Max_cycle;Signal;HPM_P1;HPM_P2
2023/10/14 00:00:46;;;;;;;5.1;3.4;;;;;;;12.39;77.63965;935.0736;;;;
2023/10/14 00:03:24;;;;;;;4.2;3;;;;;;;12.34;77.95215;935.1344;;;;
2023/10/14 00:05:35;;;;;;;4.4;2.3;;;;;;;12.35;77.93066;935.132;;;;
2023/10/14 00:07:59;;;;;;;7.5;3.1;;;;;;;12.38;77.5127;935.171;;;;
2023/10/14 00:10:26;;;;;;;4.2;2.4;;;;;;;12.34;77.68848;935.116;;;;
2023/10/14 00:12:53;;;;;;;4;2.5;;;;;;;12.4;77.60645;935.1223;;;;
2023/10/14 00:15:16;;;;;;;4.2;2.5;;;;;;;12.36;78.55371;935.1583;;;;
2023/10/14 00:17:42;;;;;;;3.1;2.3;;;;;;;12.36;78.78125;934.9827;;;;
2023/10/14 00:20:09;;;;;;;4.3;2.8;;;;;;;12.36;78.74805;935.1055;;;;
2023/10/14 00:22:32;;;;;;;3.8;2.6;;;;;;;12.39;78.13184;935.1071;;;;
2023/10/14 00:24:58;;;;;;;3.1;2.4;;;;;;;12.38;78.17676;935.0073;;;;
2023/10/14 00:27:24;;;;;;;3.8;2.3;;;;;;;12.36;77.66895;934.9763;;;;
2023/10/14 00:30:06;;;;;;;3.6;2.5;;;;;;;12.22;78.22754;934.9375;;;;
2023/10/14 00:32:15;;;;;;;4.5;2.5;;;;;;;12.12;78.58984;934.9501;;;;
2023/10/14 00:34:42;;;;;;;3.6;2.5;;;;;;;12.15;78.6416;934.9741;;;;
2023/10/14 00:37:08;;;;;;;5.9;2.6;;;;;;;12.1;78.6416;934.9175;;;;
2023/10/14 00:39:33;;;;;;;3.7;2.4;;;;;;;12.01;79.44043;934.891;;;;
2023/10/14 00:41:58;;;;;;;4;2.1;;;;;;;11.95;79.89844;934.8448;;;;
2023/10/14 00:44:28;;;;;;;3.3;2.5;;;;;;;11.92;80.07715;934.8528;;;;
2023/10/14 00:46:50;;;;;;;4.2;2.4;;;;;;;12;79.69043;934.7777;;;;
2023/10/14 00:49:17;;;;;;;5.9;2.7;;;;;;;12.06;79.3457;934.8058;;;;
2023/10/14 00:51:43;;;;;;;3.6;2.5;;;;;;;12.14;78.78711;934.7179;;;;
2023/10/14 00:54:10;;;;;;;3.1;2.4;;;;;;;12.15;78.83496;934.7753;;;;
2023/10/14 00:56:38;;;;;;;5.6;3;;;;;;;12.16;78.36719;934.7371;;;;
2023/10/14 00:58:59;;;;;;;3.8;2.6;;;;;;;12.16;78.28613;934.7098;;;;
2023/10/14 01:01:23;;;;;;;4.2;2.5;;;;;;;12.15;78.53711;934.7139;;;;
2023/10/14 01:03:50;;;;;;;4.2;2.7;;;;;;;12.08;78.91309;934.6247;;;;
2023/10/14 01:06:23;;;;;;;3.3;2.5;;;;;;;11.9;79.84277;934.6247;;;;
2023/10/14 01:08:43;;;;;;;3.2;2.7;;;;;;;11.92;79.57129;934.5952;;;;
2023/10/14 01:11:07;;;;;;;3.3;2.7;;;;;;;11.75;80.43457;934.5557;;;;
2023/10/14 01:13:34;;;;;;;5.2;2.6;;;;;;;11.84;80.08496;934.5355;;;;
2023/10/14 01:16:02;;;;;;;3.6;2.9;;;;;;;11.95;79.85254;934.5289;;;;
2023/10/14 01:18:23;;;;;;;3.3;2.5;;;;;;;12.08;79.64648;934.5425;;;;
2023/10/14 01:20:47;;;;;;;5.1;3;;;;;;;12.22;78.96289;934.5208;;;;
2023/10/14 01:23:14;;;;;;;3.8;2.6;;;;;;;12.37;77.99121;934.3726;;;;
2023/10/14 01:25:42;;;;;;;3.2;2.5;;;;;;;12.33;77.98535;934.3815;;;;
2023/10/14 01:28:11;;;;;;;4.3;2.6;;;;;;;12.37;77.58984;934.4061;;;;
2023/10/14 01:30:32;;;;;;;3.1;2.3;;;;;;;12.38;78.0752;934.4037;;;;
2023/10/14 01:33:07;;;;;;;5.1;2.6;;;;;;;12.39;78.81055;934.4092;;;;
2023/10/14 01:35:31;;;;;;;6.1;2.8;;;;;;;12.42;78.51758;934.312;;;;
2023/10/14 01:37:45;;;;;;;4.9;2.5;;;;;;;12.35;78.5957;934.3423;;;;
2023/10/14 01:40:24;;;;;;;3.6;2.3;;;;;;;12.36;78.53027;934.3638;;;;
2023/10/14 01:42:39;;;;;;;4;2.6;;;;;;;12.35;78.74512;934.2968;;;;
2023/10/14 01:45:06;;;;;;;4.4;2.8;;;;;;;12.39;78.11133;934.2168;;;;
2023/10/14 01:47:32;;;;;;;4.3;2.8;;;;;;;12.44;77.97168;934.2313;;;;
2023/10/14 01:49:56;;;;;;;3.1;2.8;;;;;;;12.53;77.66504;934.1694;;;;
2023/10/14 01:52:21;;;;;;;3.8;2.6;;;;;;;12.63;77.07617;934.126;;;;
2023/10/14 01:54:47;;;;;;;3.6;2.5;;;;;;;12.64;77.1582;934.1212;;;;
2023/10/14 01:57:16;;;;;;;4.2;2.7;;;;;;;12.7;76.77734;934.1528;;;;
2023/10/14 01:59:36;;;;;;;5.1;2.9;;;;;;;12.67;76.85352;934.0659;;;;
2023/10/14 02:02:03;;;;;;;3.3;2.6;;;;;;;12.66;77.01074;934.0485;;;;
2023/10/14 02:04:26;;;;;;;5.6;2.9;;;;;;;12.57;77.35156;934.0022;;;;
2023/10/14 02:07:11;;;;;;;4.4;2.7;;;;;;;12.53;77.51563;934.0457;;;;
2023/10/14 02:09:19;;;;;;;3.5;2.6;;;;;;;12.59;77.35547;934.0237;;;;
2023/10/14 02:11:42;;;;;;;3.2;2.2;;;;;;;12.62;77.60059;934.063;;;;
2023/10/14 02:14:09;;;;;;;3.9;2.3;;;;;;;12.66;77.57422;934.0244;;;;
2023/10/14 02:16:40;;;;;;;4.1;2.8;;;;;;;12.7;77.74121;934.0402;;;;
2023/10/14 02:19:17;;;;;;;3.1;2.6;;;;;;;12.73;77.75781;933.9633;;;;
2023/10/14 02:21:31;;;;;;;4;2.7;;;;;;;12.73;77.39258;934.064;;;;
2023/10/14 02:23:49;;;;;;;4.9;3.1;;;;;;;12.65;77.47949;934.0772;;;;
2023/10/14 02:26:24;;;;;;;4.4;2.8;;;;;;;12.65;77.58301;934.0564;;;;
2023/10/14 02:28:47;;;;;;;3.4;2.7;;;;;;;12.64;77.38574;933.999;;;;
2023/10/14 02:31:17;;;;;;;3.6;2.4;;;;;;;12.59;77.60742;934.0204;;;;
2023/10/14 02:33:38;;;;;;;3.5;2.5;;;;;;;12.6;77.90625;934.0421;;;;
2023/10/14 02:36:08;;;;;;;4.1;2.8;;;;;;;12.46;78.13379;933.9373;;;;
2023/10/14 02:38:30;;;;;;;6.1;2.8;;;;;;;12.53;77.80273;933.9856;;;;
2023/10/14 02:40:57;;;;;;;7.6;2.9;;;;;;;12.61;77.37109;934.0223;;;;
2023/10/14 02:43:21;;;;;;;3.7;2.4;;;;;;;12.64;77.37598;934.0748;;;;
2023/10/14 02:45:49;;;;;;;4.5;2.7;;;;;;;12.64;77.33008;934.0389;;;;
2023/10/14 02:48:19;;;;;;;3.7;2.5;;;;;;;12.73;77.09277;934.0839;;;;
2023/10/14 02:50:39;;;;;;;3.6;2.7;;;;;;;12.7;76.98438;934.0505;;;;
2023/10/14 02:53:09;;;;;;;4.6;2.6;;;;;;;12.54;77.74707;934.0264;;;;
2023/10/14 02:55:50;;;;;;;4;2.6;;;;;;;12.48;77.78125;933.9628;;;;
2023/10/14 02:57:55;;;;;;;3.8;2.9;;;;;;;12.24;79.0459;933.9771;;;;
2023/10/14 03:00:29;;;;;;;4.1;2.5;;;;;;;12.22;79.38477;933.9852;;;;
2023/10/14 03:02:54;;;;;;;3.8;2.7;;;;;;;12.25;79.14941;933.9731;;;;
2023/10/14 03:05:32;;;;;;;6.9;2.9;;;;;;;12.28;79.12109;933.9938;;;;
2023/10/14 03:07:50;;;;;;;3.6;2.7;;;;;;;12.37;78.79395;933.9088;;;;
2023/10/14 03:10:10;;;;;;;3.4;2.4;;;;;;;12.43;79.59668;933.8209;;;;
2023/10/14 03:12:31;;;;;;;4.9;2.8;;;;;;;12.46;78.90234;933.8471;;;;
2023/10/14 03:14:59;;;;;;;5;3.1;;;;;;;12.32;79.45117;933.873;;;;
2023/10/14 03:17:40;;;;;;;4.2;2.8;;;;;;;12.28;79.04102;933.8557;;;;
2023/10/14 03:19:53;;;;;;;5.8;3.1;;;;;;;12.35;78.84766;933.8066;;;;
2023/10/14 03:22:22;;;;;;;5.3;3.1;;;;;;;12.58;77.82422;933.8713;;;;
2023/10/14 03:24:49;;;;;;;4.7;2.8;;;;;;;12.7;77.29395;933.8884;;;;
2023/10/14 03:27:18;;;;;;;3.9;3.1;;;;;;;12.78;76.98535;933.856;;;;
2023/10/14 03:29:54;;;;;;;3.3;2.8;;;;;;;12.99;75.9541;933.8094;;;;
2023/10/14 03:32:12;;;;;;;4.1;2.9;;;;;;;13;76.08594;933.7565;;;;
2023/10/14 03:34:42;;;;;;;4.7;3;;;;;;;12.82;76.83496;933.7849;;;;
2023/10/14 03:37:18;;;;;;;4.8;2.9;;;;;;;12.63;77.93555;933.7634;;;;
2023/10/14 03:39:41;;;;;;;4.2;2.8;;;;;;;12.63;78.30273;933.7874;;;;
2023/10/14 03:41:56;;;;;;;4.2;2.8;;;;;;;12.68;77.93164;933.7951;;;;
2023/10/14 03:44:23;;;;;;;4.7;2.8;;;;;;;12.68;77.76172;933.8422;;;;
2023/10/14 03:46:59;;;;;;;5.4;3.4;;;;;;;12.65;77.49121;933.8887;;;;
2023/10/14 03:49:20;;;;;;;6.3;3.1;;;;;;;12.57;77.69629;933.8672;;;;
2023/10/14 03:51:40;;;;;;;5.6;3.1;;;;;;;12.49;77.99121;933.7942;;;;
2023/10/14 03:54:08;;;;;;;5.1;3.5;;;;;;;12.43;78.33691;933.8193;;;;
2023/10/14 03:56:34;;;;;;;4.7;2.8;;;;;;;12.38;79.67871;933.8041;;;;
2023/10/14 03:59:01;;;;;;;3.7;2.6;;;;;;;12.43;79.17285;933.8121;;;;
2023/10/14 04:02:35;;;;;;;4.2;3;;;;;;;12.42;79.51465;933.8081;;;;
2023/10/14 04:05:02;;;;;;;4.9;2.8;;;;;;;12.41;79.58398;933.7364;;;;
2023/10/14 04:07:28;;;;;;;4.6;3.1;;;;;;;12.44;79.29004;933.7681;;;;
2023/10/14 04:09:51;;;;;;;4.6;2.7;;;;;;;12.32;79.41602;933.7117;;;;
2023/10/14 04:12:09;;;;;;;3.4;2.5;;;;;;;12.36;79.14746;933.7443;;;;
2023/10/14 04:14:36;;;;;;;5;3.1;;;;;;;12.27;79.2002;933.7647;;;;
2023/10/14 04:17:18;;;;;;;5.3;3.3;;;;;;;12.34;79.08691;933.6183;;;;
2023/10/14 04:19:27;;;;;;;4.4;2.8;;;;;;;12.35;78.99707;933.5991;;;;
2023/10/14 04:21:58;;;;;;;4.1;2.8;;;;;;;12.44;78.78613;933.5948;;;;
2023/10/14 04:24:26;;;;;;;4.5;3.2;;;;;;;12.56;78.78223;933.603;;;;
2023/10/14 04:26:42;;;;;;;4.6;3.3;;;;;;;12.6;78.96289;933.6722;;;;
2023/10/14 04:29:16;;;;;;;5.2;3;;;;;;;12.55;78.49414;933.7236;;;;
2023/10/14 04:31:40;;;;;;;4.1;2.8;;;;;;;12.46;78.91504;933.5963;;;;
2023/10/14 04:34:05;;;;;;;4.8;2.9;;;;;;;12.43;79.1709;933.5582;;;;
2023/10/14 04:36:53;;;;;;;5.5;2.9;;;;;;;12.46;78.89258;933.6242;;;;
2023/10/14 04:39:04;;;;;;;4.9;3.1;;;;;;;12.42;79.06738;933.6453;;;;
2023/10/14 04:41:15;;;;;;;4;3.2;;;;;;;12.38;79.9209;933.5773;;;;
2023/10/14 04:43:54;;;;;;;6.7;3.2;;;;;;;12.42;79.65234;933.5583;;;;
2023/10/14 04:46:13;;;;;;;7.5;3.7;;;;;;;12.19;80.28516;933.6019;;;;
2023/10/14 04:48:35;;;;;;;6.2;3.9;;;;;;;12.18;80.63965;933.6091;;;;
2023/10/14 04:50:58;;;;;;;6.9;4.4;;;;;;;12.33;80.00488;933.6334;;;;
2023/10/14 04:53:26;;;;;;;7.4;4.6;;;;;;;12.42;79.76758;933.5918;;;;
2023/10/14 04:55:45;;;;;;;6.4;4.6;;;;;;;12.45;80.50586;933.6276;;;;
2023/10/14 04:58:23;;;;;;;6.5;4.4;;;;;;;12.5;80.27344;933.7367;;;;
2023/10/14 05:00:42;;;;;;;7.1;4.2;;;;;;;12.58;79.82031;933.7737;;;;
2023/10/14 05:03:05;;;;;;;5.9;4.1;;;;;;;12.69;79.15137;933.7958;;;;
2023/10/14 05:05:30;;;;;;;7;4.1;;;;;;;12.77;78.82227;933.729;;;;
2023/10/14 05:07:58;;;;;;;6.7;4.4;;;;;;;12.8;78.45996;933.72;;;;
2023/10/14 05:10:20;;;;;;;6.3;4.1;;;;;;;12.83;78.78613;933.8855;;;;
2023/10/14 05:12:51;;;;;;;5.6;3.8;;;;;;;12.81;79.5166;933.7783;;;;
2023/10/14 05:15:21;;;;;;;6.2;3.9;;;;;;;12.88;79.30078;933.7748;;;;
2023/10/14 05:17:38;;;;;;;7.8;4;;;;;;;12.91;78.81152;933.7626;;;;
2023/10/14 05:20:15;;;;;;;6.3;4;;;;;;;12.89;78.44141;933.663;;;;
2023/10/14 05:22:41;;;;;;;7.4;3.9;;;;;;;12.88;78.53027;933.6231;;;;
2023/10/14 05:24:58;;;;;;;5.1;3.7;;;;;;;12.79;78.99707;933.7225;;;;
2023/10/14 05:27:19;;;;;;;7.5;4.1;;;;;;;12.75;79.28711;933.6317;;;;
2023/10/14 05:29:50;;;;;;;5.2;3.4;;;;;;;12.79;78.91699;933.7065;;;;
2023/10/14 05:32:15;;;;;;;5.5;3.7;;;;;;;12.83;78.88867;933.7672;;;;
2023/10/14 05:34:36;;;;;;;5.1;3.5;;;;;;;12.89;78.74023;933.7556;;;;
2023/10/14 05:37:01;;;;;;;5.4;3.4;;;;;;;12.93;78.82715;933.8121;;;;
2023/10/14 05:39:27;;;;;;;5.6;3.9;;;;;;;12.95;78.36133;933.7145;;;;
2023/10/14 05:41:58;;;;;;;5.8;3.5;;;;;;;12.86;78.37891;933.7662;;;;
2023/10/14 05:44:18;;;;;;;5.2;3.6;;;;;;;12.94;78.32324;933.8424;;;;
2023/10/14 05:46:43;;;;;;;7;3.4;;;;;;;13;78.58887;933.8468;;;;
2023/10/14 05:49:16;;;;;;;5.5;3.5;;;;;;;13.01;78.76074;933.8771;;;;
2023/10/14 05:51:39;;;;;;;5.7;3.5;;;;;;;12.93;79.52734;933.8809;;;;
2023/10/14 05:54:04;;;;;;;7.5;3.9;;;;;;;13.07;78.60059;933.8298;;;;
2023/10/14 05:56:29;;;;;;;6.7;3.9;;;;;;;13.12;78.10352;933.8606;;;;
2023/10/14 05:58:54;;;;;;;6.6;3.9;;;;;;;13.06;78.71191;933.957;;;;
2023/10/14 06:01:19;;;;;;;5.9;3.7;;;;;;;12.95;79.01563;933.9501;;;;
2023/10/14 06:03:46;;;;;;;6.5;3.8;;;;;;;12.98;79.26172;934.0555;;;;
2023/10/14 06:06:14;;;;;;;6.1;3.8;;;;;;;13.09;79.05273;934.0814;;;;
2023/10/14 06:08:36;;;;;;;6.4;4.1;;;;;;;13.14;79.23242;934.0867;;;;
2023/10/14 06:11:05;;;;;;;5.9;4.2;;;;;;;13.3;78.38965;934.0525;;;;
2023/10/14 06:13:29;;;;;;;5.8;3.8;;;;;;;13.38;77.65625;934.1478;;;;
2023/10/14 06:15:54;;;;;;;5.1;3.8;;;;;;;13.51;78.35645;934.1814;;;;
2023/10/14 06:18:19;;;;;;;5.4;3.7;;;;;;;13.57;76.60938;934.1666;;;;
2023/10/14 06:20:47;;;;;;;5.2;3.4;;;;;;;13.67;75.93652;934.1411;;;;
2023/10/14 06:23:12;;;;;;;3.8;3;;;;;;;13.76;76.02246;934.1578;;;;
2023/10/14 06:25:38;;;;;;;5.6;3.6;;;;;;;13.86;76.0498;934.2733;;;;
2023/10/14 06:28:05;;;;;;;6.8;3.9;;;;;;;13.83;75.40137;934.2319;;;;
2023/10/14 06:30:29;;;;;;;5;3.7;;;;;;;13.84;75.7373;934.219;;;;
2023/10/14 06:32:58;;;;;;;5.6;3.9;;;;;;;13.84;77.52148;934.2718;;;;
2023/10/14 06:35:21;;;;;;;5.1;3.4;;;;;;;13.91;75.97852;934.3;;;;
2023/10/14 06:37:46;;;;;;;7.3;4.4;;;;;;;13.78;76.4043;934.3329;;;;
2023/10/14 06:40:13;;;;;;;5.7;3.8;;;;;;;13.97;76.36816;934.3931;;;;
2023/10/14 06:42:40;;;;;;;6.5;4.4;;;;;;;14.08;76.27246;934.3162;;;;
2023/10/14 06:45:05;;;;;;;5.1;3.6;;;;;;;14.22;76.14746;934.3926;;;;
2023/10/14 06:47:29;;;;;;;5.5;3.9;;;;;;;14.44;75.86426;934.3899;;;;
2023/10/14 06:49:54;;;;;;;7.6;4;;;;;;;14.6;74.09473;934.392;;;;
2023/10/14 06:52:18;;;;;;;9.4;5.8;;;;;;;14.74;72.97656;934.4418;;;;
2023/10/14 06:54:43;;;;;;;10;5.2;;;;;;;15.05;72.22168;934.3949;;;;
2023/10/14 06:57:10;;;;;;;7.7;4.9;;;;;;;15.41;70.38574;934.3153;;;;
2023/10/14 06:59:37;;;;;;;9.6;6.4;;;;;;;15.68;69.55176;934.4467;;;;
2023/10/14 07:03:16;;;;;;;4.7;3.5;;;;;;;16.13;68.22363;934.426;;;;
2023/10/14 07:05:46;;;;;;;6;3.6;;;;;;;16.33;64.32129;934.3616;;;;
2023/10/14 07:08:09;;;;;;;6.6;3.9;;;;;;;16.42;64.1377;934.3384;;;;
2023/10/14 07:10:32;;;;;;;5.9;3.7;;;;;;;16.53;63.73535;934.3621;;;;
2023/10/14 07:12:58;;;;;;;5.9;3.7;;;;;;;16.62;63.13574;934.3549;;;;
2023/10/14 07:15:22;;;;;;;5.2;3.1;;;;;;;16.76;64.05859;934.3733;;;;
2023/10/14 07:17:48;;;;;;;6.2;3.8;;;;;;;16.93;64.62891;934.3442;;;;
2023/10/14 07:20:13;;;;;;;5;3.8;;;;;;;17.16;64.02441;934.3275;;;;
2023/10/14 07:22:42;;;;;;;5.5;3.4;;;;;;;17.42;62.98535;934.3205;;;;
2023/10/14 07:25:05;;;;;;;7.2;3;;;;;;;17.5;61.40625;934.3123;;;;
2023/10/14 07:27:35;;;;;;;5.6;3;;;;;;;17.75;61.69629;934.3455;;;;
2023/10/14 07:29:57;;;;;;;5.6;3.1;;;;;;;17.93;61.5127;934.3792;;;;
2023/10/14 07:32:22;;;;;;;4.1;3;;;;;;;18.19;60.31934;934.3429;;;;
2023/10/14 07:34:50;;;;;;;4.4;2.8;;;;;;;18.56;59.97363;934.3869;;;;
2023/10/14 07:37:13;;;;;;;4.3;2.9;;;;;;;18.51;60.30273;934.3472;;;;
2023/10/14 07:39:39;;;;;;;3.6;2.5;;;;;;;18.83;57.25293;934.3478;;;;
2023/10/14 07:42:09;;;;;;;5.2;2.9;;;;;;;19.14;56.76855;934.4239;;;;
2023/10/14 07:44:29;;;;;;;5;2.9;;;;;;;19.18;52.58008;934.4253;;;;
2023/10/14 07:46:55;;;;;;;3.6;2.8;;;;;;;19.3;53.03809;934.3934;;;;
2023/10/14 07:49:19;;;;;;;4.3;2.6;;;;;;;19.45;53.71973;934.3764;;;;
2023/10/14 07:51:46;;;;;;;3.4;2.6;;;;;;;19.56;52.88184;934.2966;;;;
2023/10/14 07:54:12;;;;;;;6.4;3.1;;;;;;;19.65;53.79199;934.2325;;;;
2023/10/14 07:56:36;;;;;;;3.3;2.3;;;;;;;20.04;53.79199;934.26;;;;
2023/10/14 07:59:04;;;;;;;5.5;2.8;;;;;;;20.63;52.68359;934.1501;;;;
2023/10/14 08:01:27;;;;;;;6.2;2.9;;;;;;;20.87;50.70215;934.1805;;;;
2023/10/14 08:03:56;;;;;;;5.4;3.1;;;;;;;20.91;51.92188;934.209;;;;
2023/10/14 08:06:18;;;;;;;3.9;2.9;;;;;;;20.74;51.70313;934.1722;;;;
2023/10/14 08:08:47;;;;;;;5.3;3.2;;;;;;;20.71;51.2793;934.2856;;;;
2023/10/14 08:11:12;;;;;;;5.3;3.1;;;;;;;20.8;51.8623;934.2437;;;;
2023/10/14 08:13:36;;;;;;;4.4;2.8;;;;;;;20.84;52.47461;934.2612;;;;
2023/10/14 08:16:02;;;;;;;4.2;3.2;;;;;;;20.84;53.10645;934.2682;;;;
2023/10/14 08:18:28;;;;;;;4;2.7;;;;;;;20.79;52.88965;934.2852;;;;
2023/10/14 08:20:54;;;;;;;5.3;3.1;;;;;;;20.75;54.13477;934.2747;;;;
2023/10/14 08:23:20;;;;;;;4.5;3.1;;;;;;;20.75;54.36914;934.3094;;;;
2023/10/14 08:25:53;;;;;;;5.4;3.2;;;;;;;20.81;52.84668;934.2325;;;;
2023/10/14 08:28:12;;;;;;;7.4;2.9;;;;;;;20.93;52.84766;934.2514;;;;
2023/10/14 08:30:50;;;;;;;4.1;2.8;;;;;;;20.95;51.4707;934.1783;;;;
2023/10/14 08:33:10;;;;;;;5;3;;;;;;;20.88;53.32129;934.2975;;;;
2023/10/14 08:35:36;;;;;;;4.3;3.1;;;;;;;21;55.125;934.2761;;;;
2023/10/14 08:38:00;;;;;;;5.6;2.8;;;;;;;21.06;54.53613;934.2919;;;;
2023/10/14 08:40:26;;;;;;;4.6;2.8;;;;;;;21.06;52.38281;934.2693;;;;
2023/10/14 08:42:51;;;;;;;5.7;3;;;;;;;20.96;54.47656;934.3117;;;;
2023/10/14 08:45:16;;;;;;;4.1;2.5;;;;;;;20.79;56.16309;934.3678;;;;
2023/10/14 08:47:41;;;;;;;5.3;2.8;;;;;;;20.74;57.93262;934.356;;;;
2023/10/14 08:50:09;;;;;;;5.8;2.6;;;;;;;20.69;58.41699;934.3155;;;;
2023/10/14 08:52:31;;;;;;;4.2;3;;;;;;;20.74;57.75781;934.3412;;;;
2023/10/14 08:54:56;;;;;;;4.4;2.9;;;;;;;20.86;58.04102;934.3074;;;;
2023/10/14 08:57:22;;;;;;;3.9;2.4;;;;;;;21.05;56.67578;934.3214;;;;
2023/10/14 08:59:46;;;;;;;4.9;2.9;;;;;;;21.24;54.82715;934.3254;;;;
2023/10/14 09:02:14;;;;;;;4.6;3.5;;;;;;;20.9;58.37402;934.3496;;;;
2023/10/14 09:04:39;;;;;;;5.1;3.1;;;;;;;20.69;59.45703;934.3026;;;;
2023/10/14 09:07:03;;;;;;;7;3.7;;;;;;;20.38;59.73145;934.366;;;;
2023/10/14 09:09:28;;;;;;;7.9;3.6;;;;;;;20.31;62.66406;934.4639;;;;
2023/10/14 09:11:56;;;;;;;7.5;3.7;;;;;;;20.55;61.64551;934.4698;;;;
2023/10/14 09:14:21;;;;;;;7.5;4.1;;;;;;;20.48;61.36719;934.4975;;;;
2023/10/14 09:16:48;;;;;;;8.1;3.8;;;;;;;20.37;59.99707;934.5045;;;;
2023/10/14 09:19:14;;;;;;;5.3;3.8;;;;;;;20.37;59.44824;934.4689;;;;
2023/10/14 09:21:37;;;;;;;5.4;3;;;;;;;20.24;60.41211;934.4702;;;;
2023/10/14 09:24:03;;;;;;;7.7;4.3;;;;;;;20.42;60.55273;934.4564;;;;
2023/10/14 09:26:27;;;;;;;8.4;5;;;;;;;20.38;62.87207;934.5228;;;;
2023/10/14 09:28:53;;;;;;;6.2;4;;;;;;;20.25;63.72852;934.4545;;;;
2023/10/14 09:31:21;;;;;;;5.1;3.5;;;;;;;20.27;61.16309;934.5251;;;;
2023/10/14 09:33:46;;;;;;;7.8;4.8;;;;;;;20.35;62.56348;934.5078;;;;
2023/10/14 09:36:14;;;;;;;4.7;3.3;;;;;;;20.23;62.19727;934.5779;;;;
2023/10/14 09:38:36;;;;;;;5.1;3.4;;;;;;;20.65;58.79785;934.5934;;;;
2023/10/14 09:41:02;;;;;;;5.4;3.3;;;;;;;20.79;57.57715;934.5549;;;;
2023/10/14 09:43:27;;;;;;;4.6;3.3;;;;;;;21.02;58.05078;934.4698;;;;
2023/10/14 09:45:56;;;;;;;5.2;3.2;;;;;;;21.09;58.28223;934.5316;;;;
2023/10/14 09:48:20;;;;;;;4.4;3.3;;;;;;;21.04;56.3584;934.5404;;;;
2023/10/14 09:50:44;;;;;;;6.9;3.4;;;;;;;21.18;54.87793;934.4908;;;;
2023/10/14 09:53:12;;;;;;;4.6;3.3;;;;;;;21.36;54.43262;934.573;;;;
2023/10/14 09:55:37;;;;;;;4.8;2.9;;;;;;;21.53;54.41797;934.5311;;;;
2023/10/14 09:58:00;;;;;;;6.5;3.2;;;;;;;21.48;56.12207;934.4924;;;;
2023/10/14 10:00:25;;;;;;;6.3;3.4;;;;;;;21.42;55.62109;934.4944;;;;
2023/10/14 10:02:50;;;;;;;6.8;3.6;;;;;;;21.46;55.63867;934.533;;;;
2023/10/14 10:05:19;;;;;;;4.3;2.9;;;;;;;21.21;54.84668;934.5892;;;;
2023/10/14 10:07:43;;;;;;;7.1;3.2;;;;;;;20.92;55.10254;934.6662;;;;
2023/10/14 10:10:10;;;;;;;4.4;2.9;;;;;;;21.02;55.66504;934.6948;;;;
2023/10/14 10:12:33;;;;;;;4.7;3;;;;;;;21.09;55.15918;934.6481;;;;
2023/10/14 10:15:01;;;;;;;4.8;3.3;;;;;;;21.23;56.81543;934.5134;;;;
2023/10/14 10:17:24;;;;;;;3.9;2.9;;;;;;;21.35;57.34668;934.4467;;;;
2023/10/14 10:19:51;;;;;;;4.8;3.2;;;;;;;21.48;55.25488;934.4414;;;;
2023/10/14 10:22:16;;;;;;;4.6;3.2;;;;;;;21.61;54.61621;934.4224;;;;
2023/10/14 10:24:42;;;;;;;5;3.1;;;;;;;21.7;54.71973;934.4063;;;;
2023/10/14 10:27:08;;;;;;;4.8;3.5;;;;;;;21.7;54.76758;934.4077;;;;
2023/10/14 10:29:33;;;;;;;3.8;3;;;;;;;21.59;55.33887;934.4153;;;;
2023/10/14 10:31:58;;;;;;;6.6;3.1;;;;;;;21.63;54.28906;934.4473;;;;
2023/10/14 10:34:24;;;;;;;5.4;3.3;;;;;;;21.66;53.29883;934.3478;;;;
2023/10/14 10:36:52;;;;;;;6.3;3.3;;;;;;;21.54;56.24609;934.4001;;;;
2023/10/14 10:39:19;;;;;;;6;3.3;;;;;;;21.19;55.125;934.4151;;;;
2023/10/14 10:41:40;;;;;;;4.1;2.8;;;;;;;21.05;56.27734;934.3822;;;;
2023/10/14 10:44:09;;;;;;;3.6;2.8;;;;;;;21.04;56.11328;934.3324;;;;
2023/10/14 10:46:34;;;;;;;4.3;3.1;;;;;;;21.01;55.81543;934.3242;;;;
2023/10/14 10:48:58;;;;;;;5.6;2.9;;;;;;;21.07;54.53613;934.2651;;;;
2023/10/14 10:51:24;;;;;;;4.1;3.1;;;;;;;20.93;57.29199;934.3005;;;;
2023/10/14 10:54:02;;;;;;;4.8;3.1;;;;;;;20.75;56.89355;934.2859;;;;
2023/10/14 10:56:14;;;;;;;4.3;2.9;;;;;;;20.45;58.38574;934.1627;;;;
2023/10/14 10:58:39;;;;;;;4.2;2.6;;;;;;;20.26;59.45801;934.1209;;;;
2023/10/14 11:01:05;;;;;;;2.4;1.7;;;;;;;20.32;56.34668;934.0656;;;;
2023/10/14 11:03:30;;;;;;;1.3;1.2;;;;;;;20.35;55.38379;934.003;;;;
2023/10/14 11:05:56;;;;;;;1.6;1.2;;;;;;;20.33;55.56738;933.9755;;;;
2023/10/14 11:08:22;;;;;;;1.6;1.3;;;;;;;20.41;55.6123;933.9534;;;;
2023/10/14 11:10:48;;;;;;;1.6;1.2;;;;;;;20.57;57.2793;933.8753;;;;
2023/10/14 11:13:16;;;;;;;1.6;1.5;;;;;;;20.77;56.04297;933.8853;;;;
2023/10/14 11:15:38;;;;;;;2.5;2;;;;;;;21.08;56.91309;933.8005;;;;
2023/10/14 11:18:06;;;;;;;3.2;2.2;;;;;;;21.47;55.71094;933.6542;;;;
2023/10/14 11:20:31;;;;;;;1.5;1.2;;;;;;;21.69;51.1709;933.5345;;;;
2023/10/14 11:22:58;;;;;;;1.6;1.1;;;;;;;21.7;52.33008;933.5245;;;;
2023/10/14 11:25:23;;;;;;;1.1;1;;;;;;;21.55;51.84473;933.4598;;;;
2023/10/14 11:27:49;;;;;;;1.7;1.1;;;;;;;21.41;50.87988;933.5544;;;;
2023/10/14 11:30:20;;;;;;;1.8;1.5;;;;;;;21.43;49.6543;933.5481;;;;
2023/10/14 11:32:42;;;;;;;1.9;1.1;;;;;;;21.55;49.375;933.5342;;;;
2023/10/14 11:35:07;;;;;;;1;0.9;;;;;;;21.5;49.34473;933.53;;;;
2023/10/14 11:37:36;;;;;;;1.6;1;;;;;;;21.45;50.49902;933.4233;;;;
2023/10/14 11:39:58;;;;;;;1;0.9;;;;;;;21.42;51.47754;933.4414;;;;
2023/10/14 11:42:23;;;;;;;1;0.9;;;;;;;21.67;50.57129;933.3538;;;;
2023/10/14 11:44:50;;;;;;;0.8;0.8;;;;;;;22.08;50.69824;933.3304;;;;
2023/10/14 11:47:17;;;;;;;1.2;1;;;;;;;22.4;50.14941;933.351;;;;
2023/10/14 11:49:39;;;;;;;0.9;0.9;;;;;;;22.76;48.14746;933.432;;;;
2023/10/14 11:52:04;;;;;;;1.6;1.1;;;;;;;22.84;47.66211;933.3397;;;;
2023/10/14 11:54:32;;;;;;;2;1.2;;;;;;;22.98;48.32324;933.3918;;;;
2023/10/14 11:56:57;;;;;;;2.1;1.4;;;;;;;23.49;45.93359;933.4462;;;;
2023/10/14 11:59:24;;;;;;;1.8;1.3;;;;;;;25;44.53125;933.2399;;;;
2023/10/14 12:01:48;;;;;;;2;1;;;;;;;26.83;39.76172;933.3031;;;;
2023/10/14 12:04:16;;;;;;;1.2;1.1;;;;;;;27.06;37.39941;933.2258;;;;
2023/10/14 12:06:41;;;;;;;1.8;1.2;;;;;;;26.71;38.26953;933.2073;;;;
2023/10/14 12:09:10;;;;;;;1.2;1.1;;;;;;;26.18;39.34766;933.2056;;;;
2023/10/14 12:11:41;;;;;;;2;1.3;;;;;;;25.91;41.07617;933.1203;;;;
2023/10/14 12:13:59;;;;;;;2.5;1.3;;;;;;;26.02;39.6416;933.1552;;;;
2023/10/14 12:16:26;;;;;;;1.8;1.2;;;;;;;27.94;36.39063;933.062;;;;
2023/10/14 12:18:54;;;;;;;1.4;1.1;;;;;;;28.78;35.37598;932.9891;;;;
2023/10/14 12:21:16;;;;;;;1.2;1.1;;;;;;;30.52;32.55078;933.0564;;;;
2023/10/14 12:24:00;;;;;;;1.2;1;;;;;;;32.57;29.39844;933.0615;;;;
2023/10/14 12:26:16;;;;;;;1.9;1.1;;;;;;;32.41;29.66406;933.0366;;;;
2023/10/14 12:28:49;;;;;;;3;1.4;;;;;;;35.55;25.89453;932.9219;;;;
2023/10/14 12:31:15;;;;;;;1.7;1.5;;;;;;;36.98;23.39551;932.8898;;;;
2023/10/14 12:33:41;;;;;;;2.1;1.3;;;;;;;36.67;24.1416;932.9497;;;;
2023/10/14 12:36:09;;;;;;;1;0.9;;;;;;;37.03;24.10059;932.9531;;;;
2023/10/14 12:38:32;;;;;;;1.5;1.3;;;;;;;35.23;24.8877;932.927;;;;
2023/10/14 12:41:01;;;;;;;1.4;1.1;;;;;;;35.11;24.92871;932.8724;;;;
2023/10/14 12:43:33;;;;;;;1.5;1.2;;;;;;;36.65;23.39063;932.9357;;;;
2023/10/14 12:45:51;;;;;;;1.2;1.1;;;;;;;37.35;22.80762;932.902;;;;
2023/10/14 12:48:15;;;;;;;2.1;1.4;;;;;;;36.75;22.77832;932.8506;;;;
2023/10/14 12:50:46;;;;;;;2.1;1.4;;;;;;;37.4;22.58008;932.8181;;;;
2023/10/14 12:53:14;;;;;;;1.4;1.2;;;;;;;39.59;20.25098;932.778;;;;
2023/10/14 12:55:42;;;;;;;1.4;1.3;;;;;;;40.82;19.25391;932.8105;;;;
2023/10/14 12:58:04;;;;;;;1.7;1.5;;;;;;;42.05;18.11719;932.8264;;;;
2023/10/14 13:00:30;;;;;;;1.8;1.4;;;;;;;42.9;17.29102;932.7689;;;;
2023/10/14 13:02:56;;;;;;;3.8;2.6;;;;;;;43.61;16.70313;932.7004;;;;
2023/10/14 13:05:21;;;;;;;1.6;1.5;;;;;;;42.09;17.62891;932.7076;;;;
2023/10/14 13:07:47;;;;;;;1.8;1.2;;;;;;;42.54;17.43652;932.6903;;;;
2023/10/14 13:10:18;;;;;;;1.7;1.2;;;;;;;40.06;19.68555;932.7083;;;;
2023/10/14 13:12:40;;;;;;;1.5;1.4;;;;;;;41.36;18.10156;932.6569;;;;
2023/10/14 13:15:06;;;;;;;2.2;1.7;;;;;;;40.2;18.81348;932.6628;;;;
2023/10/14 13:17:35;;;;;;;1.3;1.2;;;;;;;39.35;19.99609;932.62;;;;
2023/10/14 13:19:56;;;;;;;2.2;1.3;;;;;;;34.89;25.89355;932.6038;;;;
2023/10/14 13:22:23;;;;;;;2;1.3;;;;;;;34.44;25.84375;932.6617;;;;
2023/10/14 13:24:51;;;;;;;3;1.7;;;;;;;32.6;28.74023;932.6654;;;;
2023/10/14 13:27:14;;;;;;;2.8;1.3;;;;;;;30.07;33.40137;932.6111;;;;
2023/10/14 13:29:41;;;;;;;2.1;1.3;;;;;;;28.86;36.57227;932.5614;;;;
2023/10/14 13:32:06;;;;;;;4.2;1.6;;;;;;;29.59;35.9043;932.5743;;;;
2023/10/14 13:34:34;;;;;;;1.5;1.4;;;;;;;27.73;38.05957;932.5943;;;;
2023/10/14 13:36:59;;;;;;;4.3;1.7;;;;;;;25.38;42.69238;932.5187;;;;
2023/10/14 13:39:34;;;;;;;1.3;1.2;;;;;;;24.62;45.68359;932.4905;;;;
2023/10/14 13:41:51;;;;;;;1.5;1.2;;;;;;;24.46;44.84277;932.4322;;;;
2023/10/14 13:44:19;;;;;;;2.2;1.8;;;;;;;24.78;43.58984;932.3719;;;;
2023/10/14 13:46:44;;;;;;;1.4;1.3;;;;;;;26.14;40.75293;932.3148;;;;
2023/10/14 13:49:11;;;;;;;1.5;1.4;;;;;;;26.26;40.50293;932.2036;;;;
2023/10/14 13:51:36;;;;;;;1.4;1.3;;;;;;;25.6;41.40137;932.1939;;;;
2023/10/14 13:54:02;;;;;;;1.8;1.3;;;;;;;24.82;43.87598;932.2444;;;;
2023/10/14 13:56:28;;;;;;;1.6;1.3;;;;;;;24.38;44.1748;932.2442;;;;
2023/10/14 13:58:55;;;;;;;1.4;1.3;;;;;;;24.05;44.09473;932.2901;;;;
2023/10/14 14:01:20;;;;;;;1.8;1;;;;;;;23.75;45.3252;932.2861;;;;
2023/10/14 14:03:57;;;;;;;2;1.1;;;;;;;23.54;45.12695;932.31;;;;
2023/10/14 14:06:12;;;;;;;1.3;1.2;;;;;;;23.58;45.43652;932.2344;;;;
2023/10/14 14:08:40;;;;;;;0.8;0.8;;;;;;;23.58;45.1416;932.3013;;;;
2023/10/14 14:11:05;;;;;;;1.4;1.2;;;;;;;23.46;45.84668;932.3257;;;;
2023/10/14 14:13:32;;;;;;;1.4;1;;;;;;;23.5;46.59277;932.3253;;;;
2023/10/14 14:15:56;;;;;;;1.2;1.1;;;;;;;23.35;46.92969;932.351;;;;
2023/10/14 14:18:23;;;;;;;1.5;1.1;;;;;;;23.08;47.96973;932.3072;;;;